createdAt,value
2022-10-24T17:56:34.436Z,16.92
2022-10-24T17:57:34.377Z,16.85
2022-10-24T17:58:34.354Z,16.88
2022-10-24T17:59:34.328Z,16.81
2022-10-24T18:00:34.309Z,16.77
2022-10-24T18:01:34.390Z,16.65
2022-10-24T18:02:34.258Z,16.60
2022-10-24T18:03:34.237Z,16.52
2022-10-24T18:04:34.207Z,16.48
2022-10-24T18:05:34.184Z,16.37
2022-10-24T18:06:34.161Z,16.31
2022-10-24T18:07:34.146Z,16.37
2022-10-24T18:08:34.118Z,16.38
2022-10-24T18:09:34.108Z,16.18
2022-10-24T18:10:34.084Z,16.27
2022-10-24T18:11:34.058Z,16.23
2022-10-24T18:12:34.071Z,16.23
2022-10-24T18:13:34.017Z,16.34
2022-10-24T18:14:34.010Z,16.27
2022-10-24T18:15:33.983Z,16.26
2022-10-24T18:16:33.961Z,16.16
2022-10-24T18:17:33.938Z,16.16
2022-10-24T18:18:33.925Z,16.09
2022-10-24T18:19:33.908Z,16.11
2022-10-24T18:20:33.902Z,16.14
2022-10-24T18:21:33.867Z,16.07
2022-10-24T18:22:33.902Z,16.09
2022-10-24T18:23:33.830Z,16.01
2022-10-24T18:24:33.821Z,15.89
2022-10-24T18:25:33.808Z,15.86
2022-10-24T18:26:33.764Z,15.84
2022-10-24T18:27:33.741Z,15.72
2022-10-24T18:28:33.730Z,15.76
2022-10-24T18:29:33.754Z,15.63
2022-10-24T18:30:33.685Z,15.57
2022-10-24T18:31:33.669Z,15.61
2022-10-24T18:32:33.657Z,15.60
2022-10-24T18:33:33.626Z,15.51
2022-10-24T18:34:33.620Z,15.56
2022-10-24T18:35:33.598Z,15.43
2022-10-24T18:36:33.568Z,15.48
2022-10-24T18:37:33.552Z,15.63
2022-10-24T18:38:33.529Z,15.75
2022-10-24T18:39:33.513Z,15.82
2022-10-24T18:40:33.529Z,15.81
2022-10-24T18:41:33.482Z,15.81
2022-10-24T18:42:33.535Z,15.82
2022-10-24T18:43:33.455Z,15.94
2022-10-24T18:44:33.420Z,16.00
2022-10-24T18:45:33.406Z,16.04
2022-10-24T18:46:33.381Z,15.99
2022-10-24T18:47:33.358Z,15.94
2022-10-24T18:48:33.348Z,15.86
2022-10-24T18:49:33.316Z,15.81
2022-10-24T18:50:33.303Z,15.86
2022-10-24T18:51:33.278Z,15.72
2022-10-24T18:52:33.258Z,15.74
2022-10-24T18:53:33.245Z,15.64
2022-10-24T18:54:33.275Z,15.64
2022-10-24T18:55:33.212Z,15.59
2022-10-24T18:56:33.191Z,15.60
2022-10-24T18:57:33.166Z,15.59
2022-10-24T18:58:33.148Z,15.74
2022-10-24T18:59:33.146Z,15.84
2022-10-24T19:00:33.139Z,15.78
2022-10-24T19:01:33.162Z,15.79
2022-10-24T19:02:33.197Z,15.79
2022-10-24T19:03:33.086Z,15.82
2022-10-24T19:04:33.029Z,15.79
2022-10-24T19:05:33.010Z,15.75
2022-10-24T19:06:32.994Z,15.68
2022-10-24T19:07:32.981Z,15.63
2022-10-24T19:08:32.950Z,15.66
2022-10-24T19:09:32.934Z,15.66
2022-10-24T19:10:32.916Z,15.75
2022-10-24T19:11:32.898Z,15.99
2022-10-24T19:12:32.877Z,15.99
2022-10-24T19:13:32.860Z,15.88
2022-10-24T19:14:32.835Z,16.12
2022-10-24T19:15:32.821Z,16.06
2022-10-24T19:16:32.799Z,16.07
2022-10-24T19:17:32.781Z,15.99
2022-10-24T19:18:32.763Z,16.03
2022-10-24T19:20:32.720Z,15.85
2022-10-24T19:21:32.702Z,16.01
2022-10-24T19:22:32.682Z,16.09
2022-10-24T19:23:32.667Z,16.04
2022-10-24T19:24:32.644Z,16.04
2022-10-24T19:25:32.623Z,15.94
2022-10-24T19:26:32.603Z,15.86
2022-10-24T19:27:32.587Z,16.00
2022-10-24T19:28:32.568Z,15.84
2022-10-24T19:29:32.547Z,15.78
2022-10-24T19:30:32.541Z,15.81
2022-10-24T19:31:32.524Z,15.78
2022-10-24T19:32:32.498Z,15.74
2022-10-24T19:33:32.488Z,15.81
2022-10-24T19:34:32.452Z,15.85
2022-10-24T19:35:32.458Z,15.81
2022-10-24T19:36:32.413Z,15.78
2022-10-24T19:37:32.411Z,15.86
2022-10-24T19:38:32.381Z,16.03
2022-10-24T19:39:33.943Z,16.12
2022-10-24T19:40:32.335Z,16.04
2022-10-24T19:41:32.320Z,16.03
2022-10-24T19:42:32.307Z,16.23
2022-10-24T19:43:32.275Z,16.16
2022-10-24T19:44:32.257Z,16.37
2022-10-24T19:45:32.238Z,16.30
2022-10-24T19:46:32.226Z,16.33
2022-10-24T19:47:32.199Z,16.44
2022-10-24T19:48:32.184Z,16.42
2022-10-24T19:49:32.162Z,16.48
2022-10-24T19:50:32.145Z,16.63
2022-10-24T19:51:32.124Z,16.65
2022-10-24T19:52:32.111Z,16.73
2022-10-24T19:53:32.088Z,16.75
2022-10-24T19:54:32.073Z,16.83
2022-10-24T19:55:32.053Z,16.86
2022-10-24T19:56:32.031Z,16.88
2022-10-24T19:57:32.013Z,16.88
2022-10-24T19:58:31.990Z,16.83
2022-10-24T19:59:31.967Z,16.88
2022-10-24T20:00:31.969Z,16.86
2022-10-24T20:01:32.175Z,16.85
2022-10-24T20:02:31.913Z,16.77
2022-10-24T20:03:31.894Z,16.74
2022-10-24T20:04:31.875Z,16.86
2022-10-24T20:05:31.857Z,16.74
2022-10-24T20:06:31.837Z,16.83
2022-10-24T20:07:31.834Z,16.86
2022-10-24T20:08:31.803Z,16.88
2022-10-24T20:09:31.780Z,16.86
2022-10-24T20:10:31.763Z,16.85
2022-10-24T20:11:31.745Z,16.86
2022-10-24T20:12:31.732Z,16.86
2022-10-24T20:13:31.711Z,16.85
2022-10-24T20:14:31.704Z,16.85
2022-10-24T20:15:31.679Z,16.85
2022-10-24T20:16:31.663Z,16.88
2022-10-24T20:17:31.629Z,16.86
2022-10-24T20:18:31.644Z,16.78
2022-10-24T20:19:31.607Z,16.71
2022-10-24T20:20:31.589Z,16.68
2022-10-24T20:21:31.559Z,16.63
2022-10-24T20:22:31.565Z,16.80
2022-10-24T20:23:31.522Z,16.78
2022-10-24T20:24:31.502Z,16.73
2022-10-24T20:25:31.478Z,16.65
2022-10-24T20:26:31.478Z,16.62
2022-10-24T20:27:31.449Z,16.55
2022-10-24T20:28:31.424Z,16.58
2022-10-24T20:29:31.407Z,16.59
2022-10-24T20:30:31.385Z,16.62
2022-10-24T20:31:31.366Z,16.65
2022-10-24T20:32:31.350Z,16.67
2022-10-24T20:33:31.326Z,16.68
2022-10-24T20:34:31.309Z,16.77
2022-10-24T20:35:31.292Z,16.78
2022-10-24T20:36:31.271Z,16.80
2022-10-24T20:37:31.262Z,16.71
2022-10-24T20:38:31.232Z,16.89
2022-10-24T20:39:31.241Z,16.83
2022-10-24T20:40:31.207Z,16.80
2022-10-24T20:41:31.192Z,16.85
2022-10-24T20:42:31.162Z,16.75
2022-10-24T20:43:31.141Z,16.75
2022-10-24T20:44:31.128Z,16.74
2022-10-24T20:45:31.103Z,16.70
2022-10-24T20:46:31.082Z,16.67
2022-10-24T20:47:31.082Z,16.58
2022-10-24T20:48:31.057Z,16.50
2022-10-24T20:49:31.027Z,16.59
2022-10-24T20:50:31.012Z,16.58
2022-10-24T20:51:30.997Z,16.55
2022-10-24T20:52:30.975Z,16.53
2022-10-24T20:53:30.955Z,16.53
2022-10-24T20:54:30.930Z,16.58
2022-10-24T20:55:43.451Z,16.52
2022-10-24T20:56:30.899Z,16.52
2022-10-24T20:57:30.878Z,16.50
2022-10-24T20:58:30.857Z,16.48
2022-10-24T20:59:30.839Z,16.50
2022-10-24T21:00:30.931Z,16.44
2022-10-24T21:01:30.924Z,16.50
2022-10-24T21:02:30.918Z,16.42
2022-10-24T21:03:30.760Z,16.40
2022-10-24T21:04:30.771Z,16.37
2022-10-24T21:05:30.731Z,16.42
2022-10-24T21:06:30.705Z,16.31
2022-10-24T21:07:30.681Z,16.41
2022-10-24T21:08:30.663Z,16.41
2022-10-24T21:09:30.645Z,16.34
2022-10-24T21:10:30.622Z,16.18
2022-10-24T21:11:30.608Z,16.23
2022-10-24T21:12:30.597Z,16.23
2022-10-24T21:13:30.570Z,16.12
2022-10-24T21:14:30.558Z,16.09
2022-10-24T21:15:30.531Z,16.20
2022-10-24T21:16:30.513Z,16.04
2022-10-24T21:17:30.505Z,16.06
2022-10-24T21:18:30.475Z,16.07
2022-10-24T21:19:30.456Z,16.06
2022-10-24T21:20:30.434Z,16.03
2022-10-24T21:21:30.421Z,16.00
2022-10-24T21:22:30.391Z,15.86
2022-10-24T21:23:30.378Z,15.88
2022-10-24T21:24:30.362Z,15.88
2022-10-24T21:25:30.442Z,15.88
2022-10-24T21:26:30.324Z,15.79
2022-10-24T21:27:30.295Z,15.82
2022-10-24T21:28:30.315Z,15.79
2022-10-24T21:29:34.358Z,15.79
2022-10-24T21:30:30.242Z,15.81
2022-10-24T21:31:30.228Z,15.84
2022-10-24T21:32:30.205Z,15.88
2022-10-24T21:33:30.182Z,15.86
2022-10-24T21:34:33.343Z,15.79
2022-10-24T21:35:30.134Z,15.76
2022-10-24T21:36:30.117Z,15.82
2022-10-24T21:37:30.098Z,15.76
2022-10-24T21:38:30.074Z,15.70
2022-10-24T21:39:30.062Z,15.66
2022-10-24T21:40:30.048Z,15.63
2022-10-24T21:41:30.029Z,15.67
2022-10-24T21:42:29.999Z,15.51
2022-10-24T21:43:29.981Z,15.64
2022-10-24T21:44:29.996Z,15.51
2022-10-24T21:45:29.947Z,15.46
2022-10-24T21:46:29.926Z,15.54
2022-10-24T21:47:29.896Z,15.60
2022-10-24T21:48:29.889Z,15.64
2022-10-24T21:49:29.857Z,15.68
2022-10-24T21:50:29.841Z,15.64
2022-10-24T21:51:29.818Z,15.57
2022-10-24T21:52:29.796Z,15.59
2022-10-24T21:53:29.790Z,15.56
2022-10-24T21:54:29.769Z,15.56
2022-10-24T21:55:29.739Z,15.64
2022-10-24T21:56:29.723Z,15.68
2022-10-24T21:57:29.700Z,15.70
2022-10-24T21:58:29.679Z,15.76
2022-10-24T21:59:29.662Z,15.68
2022-10-24T22:00:29.639Z,15.66
2022-10-24T22:01:29.789Z,15.72
2022-10-24T22:02:29.732Z,15.75
2022-10-24T22:03:29.605Z,15.60
2022-10-24T22:04:29.564Z,15.76
2022-10-24T22:05:29.537Z,15.79
2022-10-24T22:06:29.519Z,15.78
2022-10-24T22:07:29.501Z,15.81
2022-10-24T22:08:29.493Z,15.75
2022-10-24T22:09:29.461Z,15.74
2022-10-24T22:10:29.437Z,15.74
2022-10-24T22:11:29.417Z,15.68
2022-10-24T22:12:29.403Z,15.61
2022-10-24T22:13:29.379Z,15.68
2022-10-24T22:14:29.359Z,15.72
2022-10-24T22:15:29.340Z,15.70
2022-10-24T22:16:29.322Z,15.75
2022-10-24T22:17:29.298Z,15.74
2022-10-24T22:18:29.295Z,15.70
2022-10-24T22:19:29.261Z,15.67
2022-10-24T22:20:29.240Z,15.76
2022-10-24T22:21:29.221Z,15.78
2022-10-24T22:22:29.202Z,15.67
2022-10-24T22:23:29.182Z,15.74
2022-10-24T22:24:29.160Z,15.64
2022-10-24T22:25:29.150Z,15.59
2022-10-24T22:26:29.123Z,15.63
2022-10-24T22:27:29.106Z,15.57
2022-10-24T22:28:29.090Z,15.49
2022-10-24T22:29:29.065Z,15.59
2022-10-24T22:30:29.042Z,15.64
2022-10-24T22:31:29.031Z,15.57
2022-10-24T22:32:29.004Z,15.54
2022-10-24T22:33:28.992Z,15.52
2022-10-24T22:34:28.967Z,15.61
2022-10-24T22:35:28.943Z,15.48
2022-10-24T22:36:28.923Z,15.48
2022-10-24T22:37:28.904Z,15.49
2022-10-24T22:38:28.881Z,15.56
2022-10-24T22:39:28.861Z,15.49
2022-10-24T22:40:28.839Z,15.51
2022-10-24T22:41:28.821Z,15.56
2022-10-24T22:42:28.806Z,15.56
2022-10-24T22:43:28.784Z,15.43
2022-10-24T22:44:28.764Z,15.42
2022-10-24T22:45:28.740Z,15.41
2022-10-24T22:46:28.725Z,15.35
2022-10-24T22:47:28.703Z,15.38
2022-10-24T22:48:28.678Z,15.39
2022-10-24T22:49:28.665Z,15.35
2022-10-24T22:50:28.643Z,15.45
2022-10-24T22:51:28.660Z,15.35
2022-10-24T22:52:28.599Z,15.24
2022-10-24T22:53:28.611Z,15.24
2022-10-24T22:54:28.560Z,15.27
2022-10-24T22:55:28.544Z,15.21
2022-10-24T22:56:28.522Z,15.24
2022-10-24T22:57:28.565Z,15.24
2022-10-24T22:58:28.482Z,15.24
2022-10-24T22:59:28.474Z,15.27
2022-10-24T23:00:28.440Z,15.28
2022-10-24T23:01:28.544Z,15.30
2022-10-24T23:02:28.570Z,15.31
2022-10-24T23:03:28.397Z,15.38
2022-10-24T23:04:28.364Z,15.31
2022-10-24T23:05:28.384Z,15.45
2022-10-24T23:06:28.406Z,15.39
2022-10-24T23:07:28.421Z,15.52
2022-10-24T23:08:28.304Z,15.60
2022-10-24T23:09:28.321Z,15.64
2022-10-24T23:10:28.273Z,15.57
2022-10-24T23:11:28.246Z,15.54
2022-10-24T23:12:28.263Z,15.60
2022-10-24T23:13:28.172Z,15.64
2022-10-24T23:14:28.152Z,15.68
2022-10-24T23:15:28.135Z,15.70
2022-10-24T23:16:28.116Z,15.75
2022-10-24T23:17:28.093Z,15.75
2022-10-24T23:18:28.074Z,15.78
2022-10-24T23:19:28.061Z,15.61
2022-10-24T23:20:28.037Z,15.76
2022-10-24T23:21:28.021Z,15.68
2022-10-24T23:22:28.064Z,15.59
2022-10-24T23:23:29.478Z,15.51
2022-10-24T23:24:27.956Z,15.41
2022-10-24T23:25:27.938Z,15.45
2022-10-24T23:26:27.914Z,15.46
2022-10-24T23:27:27.891Z,15.48
2022-10-24T23:28:27.881Z,15.43
2022-10-24T23:29:27.858Z,15.42
2022-10-24T23:30:27.836Z,15.38
2022-10-24T23:31:27.833Z,15.43
2022-10-24T23:32:27.796Z,15.41
2022-10-24T23:33:27.769Z,15.33
2022-10-24T23:34:27.755Z,15.27
2022-10-24T23:35:27.734Z,15.24
2022-10-24T23:36:29.375Z,15.23
2022-10-24T23:37:27.689Z,15.17
2022-10-24T23:38:27.670Z,15.11
2022-10-24T23:39:27.653Z,15.17
2022-10-24T23:40:27.629Z,15.11
2022-10-24T23:41:27.609Z,15.08
2022-10-24T23:42:27.590Z,15.21
2022-10-24T23:43:27.568Z,15.12
2022-10-24T23:44:27.546Z,14.99
2022-10-24T23:45:27.525Z,15.05
2022-10-24T23:46:27.512Z,14.90
2022-10-24T23:47:27.488Z,14.91
2022-10-24T23:48:27.464Z,14.84
2022-10-24T23:49:27.445Z,14.78
2022-10-24T23:50:27.420Z,14.86
2022-10-24T23:51:27.407Z,14.88
2022-10-24T23:52:27.398Z,14.84
2022-10-24T23:53:27.367Z,14.86
2022-10-24T23:54:27.342Z,14.81
2022-10-24T23:55:27.322Z,14.87
2022-10-24T23:56:27.301Z,14.91
2022-10-24T23:57:27.285Z,14.84
2022-10-24T23:58:27.265Z,14.86
2022-10-24T23:59:27.236Z,14.87
